sensor_id;sensor_type;location;lat;lon;timestamp;P1;durP1;ratioP1;P2;durP2;ratioP2
52468;SDS011;38381;53.688;10.776;2023-01-01T00:01:40;8.53;;;6.40;;
52468;SDS011;38381;53.688;10.776;2023-01-01T00:06:41;9.80;;;7.75;;
52468;SDS011;38381;53.688;10.776;2023-01-01T00:11:42;9.23;;;5.38;;
52468;SDS011;38381;53.688;10.776;2023-01-01T00:16:42;7.70;;;5.07;;
52468;SDS011;38381;53.688;10.776;2023-01-01T00:21:43;5.50;;;4.43;;
52468;SDS011;38381;53.688;10.776;2023-01-01T00:26:45;8.50;;;4.13;;
52468;SDS011;38381;53.688;10.776;2023-01-01T00:31:45;4.38;;;3.50;;
52468;SDS011;38381;53.688;10.776;2023-01-01T00:36:46;7.63;;;4.45;;
52468;SDS011;38381;53.688;10.776;2023-01-01T00:41:46;6.80;;;3.63;;
52468;SDS011;38381;53.688;10.776;2023-01-01T00:46:47;6.30;;;4.20;;
52468;SDS011;38381;53.688;10.776;2023-01-01T00:51:47;5.43;;;3.63;;
52468;SDS011;38381;53.688;10.776;2023-01-01T00:56:48;7.00;;;3.15;;
52468;SDS011;38381;53.688;10.776;2023-01-01T01:01:48;6.70;;;2.93;;
52468;SDS011;38381;53.688;10.776;2023-01-01T01:06:48;3.80;;;2.97;;
52468;SDS011;38381;53.688;10.776;2023-01-01T01:11:49;6.40;;;2.90;;
52468;SDS011;38381;53.688;10.776;2023-01-01T01:16:49;8.33;;;3.50;;
52468;SDS011;38381;53.688;10.776;2023-01-01T01:21:49;8.07;;;4.30;;
52468;SDS011;38381;53.688;10.776;2023-01-01T01:26:51;8.50;;;4.03;;
52468;SDS011;38381;53.688;10.776;2023-01-01T01:31:52;6.03;;;3.33;;
52468;SDS011;38381;53.688;10.776;2023-01-01T01:36:52;6.55;;;3.33;;
52468;SDS011;38381;53.688;10.776;2023-01-01T01:41:53;4.13;;;3.40;;
52468;SDS011;38381;53.688;10.776;2023-01-01T01:46:53;5.85;;;3.80;;
52468;SDS011;38381;53.688;10.776;2023-01-01T01:51:57;5.18;;;3.17;;
52468;SDS011;38381;53.688;10.776;2023-01-01T01:57:04;4.20;;;2.83;;
52468;SDS011;38381;53.688;10.776;2023-01-01T02:02:08;5.65;;;3.05;;
52468;SDS011;38381;53.688;10.776;2023-01-01T02:07:14;6.97;;;3.72;;
52468;SDS011;38381;53.688;10.776;2023-01-01T02:12:17;11.45;;;3.65;;
52468;SDS011;38381;53.688;10.776;2023-01-01T02:17:22;11.98;;;3.80;;
52468;SDS011;38381;53.688;10.776;2023-01-01T02:33:23;9.45;;;3.70;;
52468;SDS011;38381;53.688;10.776;2023-01-01T02:43:30;6.78;;;3.55;;
52468;SDS011;38381;53.688;10.776;2023-01-01T02:48:35;5.82;;;3.08;;
52468;SDS011;38381;53.688;10.776;2023-01-01T03:15:13;5.78;;;3.55;;
52468;SDS011;38381;53.688;10.776;2023-01-01T03:20:23;8.23;;;3.90;;
52468;SDS011;38381;53.688;10.776;2023-01-01T03:25:27;6.38;;;4.10;;
52468;SDS011;38381;53.688;10.776;2023-01-01T03:30:31;4.80;;;2.88;;
52468;SDS011;38381;53.688;10.776;2023-01-01T03:35:39;4.85;;;4.10;;
52468;SDS011;38381;53.688;10.776;2023-01-01T03:40:40;6.88;;;4.80;;
52468;SDS011;38381;53.688;10.776;2023-01-01T03:45:45;5.25;;;4.00;;
52468;SDS011;38381;53.688;10.776;2023-01-01T03:51:08;9.85;;;3.65;;
52468;SDS011;38381;53.688;10.776;2023-01-01T03:56:22;10.55;;;4.32;;
52468;SDS011;38381;53.688;10.776;2023-01-01T04:01:40;4.70;;;3.80;;
52468;SDS011;38381;53.688;10.776;2023-01-01T04:06:50;7.40;;;4.13;;
52468;SDS011;38381;53.688;10.776;2023-01-01T04:11:50;8.93;;;4.72;;
52468;SDS011;38381;53.688;10.776;2023-01-01T04:17:00;8.25;;;4.57;;
52468;SDS011;38381;53.688;10.776;2023-01-01T04:22:03;6.15;;;4.60;;
52468;SDS011;38381;53.688;10.776;2023-01-01T04:27:04;6.55;;;3.50;;
52468;SDS011;38381;53.688;10.776;2023-01-01T04:32:04;6.90;;;3.40;;
52468;SDS011;38381;53.688;10.776;2023-01-01T04:37:04;7.37;;;4.27;;
52468;SDS011;38381;53.688;10.776;2023-01-01T04:42:05;6.00;;;3.83;;
52468;SDS011;38381;53.688;10.776;2023-01-01T04:47:05;6.17;;;3.10;;
52468;SDS011;38381;53.688;10.776;2023-01-01T04:52:05;4.43;;;3.72;;
52468;SDS011;38381;53.688;10.776;2023-01-01T04:57:06;6.25;;;4.25;;
52468;SDS011;38381;53.688;10.776;2023-01-01T05:02:06;6.97;;;4.22;;
52468;SDS011;38381;53.688;10.776;2023-01-01T05:07:07;11.27;;;5.00;;
52468;SDS011;38381;53.688;10.776;2023-01-01T05:12:07;5.83;;;3.33;;
52468;SDS011;38381;53.688;10.776;2023-01-01T05:17:07;7.20;;;4.03;;
52468;SDS011;38381;53.688;10.776;2023-01-01T05:22:08;7.80;;;3.83;;
52468;SDS011;38381;53.688;10.776;2023-01-01T05:27:08;5.10;;;3.90;;
52468;SDS011;38381;53.688;10.776;2023-01-01T05:32:08;4.27;;;3.03;;
52468;SDS011;38381;53.688;10.776;2023-01-01T05:37:09;7.50;;;3.77;;
52468;SDS011;38381;53.688;10.776;2023-01-01T05:42:09;8.52;;;4.00;;
52468;SDS011;38381;53.688;10.776;2023-01-01T05:47:10;5.47;;;4.23;;
52468;SDS011;38381;53.688;10.776;2023-01-01T05:52:11;6.53;;;4.40;;
52468;SDS011;38381;53.688;10.776;2023-01-01T05:57:11;6.80;;;3.55;;
52468;SDS011;38381;53.688;10.776;2023-01-01T06:02:12;11.03;;;3.70;;
52468;SDS011;38381;53.688;10.776;2023-01-01T06:07:12;6.17;;;3.83;;
52468;SDS011;38381;53.688;10.776;2023-01-01T06:12:12;7.35;;;3.38;;
52468;SDS011;38381;53.688;10.776;2023-01-01T06:17:13;5.10;;;3.22;;
52468;SDS011;38381;53.688;10.776;2023-01-01T06:22:14;9.18;;;3.17;;
52468;SDS011;38381;53.688;10.776;2023-01-01T06:27:14;3.70;;;3.00;;
52468;SDS011;38381;53.688;10.776;2023-01-01T06:32:16;6.27;;;3.37;;
52468;SDS011;38381;53.688;10.776;2023-01-01T06:37:16;6.75;;;3.92;;
52468;SDS011;38381;53.688;10.776;2023-01-01T06:42:16;4.10;;;3.07;;
52468;SDS011;38381;53.688;10.776;2023-01-01T06:47:17;7.13;;;3.33;;
52468;SDS011;38381;53.688;10.776;2023-01-01T06:52:17;6.97;;;2.90;;
52468;SDS011;38381;53.688;10.776;2023-01-01T06:57:18;6.40;;;2.87;;
52468;SDS011;38381;53.688;10.776;2023-01-01T07:02:19;5.18;;;2.80;;
52468;SDS011;38381;53.688;10.776;2023-01-01T07:07:19;4.63;;;3.00;;
52468;SDS011;38381;53.688;10.776;2023-01-01T07:12:19;8.27;;;3.13;;
52468;SDS011;38381;53.688;10.776;2023-01-01T07:17:20;9.43;;;2.83;;
52468;SDS011;38381;53.688;10.776;2023-01-01T07:22:20;6.32;;;3.15;;
52468;SDS011;38381;53.688;10.776;2023-01-01T07:27:21;5.17;;;2.70;;
52468;SDS011;38381;53.688;10.776;2023-01-01T07:32:21;6.43;;;2.67;;
52468;SDS011;38381;53.688;10.776;2023-01-01T07:37:21;3.35;;;2.67;;
52468;SDS011;38381;53.688;10.776;2023-01-01T07:42:25;4.55;;;2.60;;
52468;SDS011;38381;53.688;10.776;2023-01-01T07:47:25;3.80;;;2.15;;
52468;SDS011;38381;53.688;10.776;2023-01-01T07:52:26;4.15;;;2.30;;
52468;SDS011;38381;53.688;10.776;2023-01-01T07:57:26;2.87;;;2.10;;
52468;SDS011;38381;53.688;10.776;2023-01-01T08:02:26;4.30;;;2.67;;
52468;SDS011;38381;53.688;10.776;2023-01-01T08:07:27;4.83;;;1.77;;
52468;SDS011;38381;53.688;10.776;2023-01-01T08:12:27;8.82;;;2.67;;
52468;SDS011;38381;53.688;10.776;2023-01-01T08:17:27;7.13;;;1.93;;
52468;SDS011;38381;53.688;10.776;2023-01-01T08:22:28;3.10;;;2.03;;
52468;SDS011;38381;53.688;10.776;2023-01-01T08:27:28;4.03;;;1.97;;
52468;SDS011;38381;53.688;10.776;2023-01-01T08:32:29;5.53;;;2.00;;
52468;SDS011;38381;53.688;10.776;2023-01-01T08:37:29;3.97;;;2.03;;
52468;SDS011;38381;53.688;10.776;2023-01-01T08:42:29;2.77;;;2.13;;
52468;SDS011;38381;53.688;10.776;2023-01-01T08:47:30;5.00;;;1.70;;
52468;SDS011;38381;53.688;10.776;2023-01-01T08:52:30;2.00;;;1.40;;
52468;SDS011;38381;53.688;10.776;2023-01-01T08:57:31;4.82;;;2.13;;
52468;SDS011;38381;53.688;10.776;2023-01-01T09:02:31;2.67;;;1.65;;
52468;SDS011;38381;53.688;10.776;2023-01-01T09:07:32;5.20;;;1.73;;
52468;SDS011;38381;53.688;10.776;2023-01-01T09:12:32;1.83;;;1.40;;
52468;SDS011;38381;53.688;10.776;2023-01-01T09:17:33;4.53;;;1.90;;
52468;SDS011;38381;53.688;10.776;2023-01-01T09:22:34;3.13;;;2.33;;
52468;SDS011;38381;53.688;10.776;2023-01-01T09:27:34;4.97;;;2.23;;
52468;SDS011;38381;53.688;10.776;2023-01-01T09:32:34;3.33;;;1.83;;
52468;SDS011;38381;53.688;10.776;2023-01-01T09:37:35;3.53;;;2.03;;
52468;SDS011;38381;53.688;10.776;2023-01-01T09:42:39;3.50;;;1.63;;
52468;SDS011;38381;53.688;10.776;2023-01-01T09:47:51;3.60;;;1.83;;
52468;SDS011;38381;53.688;10.776;2023-01-01T09:52:57;6.22;;;2.17;;
52468;SDS011;38381;53.688;10.776;2023-01-01T09:57:59;3.75;;;1.60;;
52468;SDS011;38381;53.688;10.776;2023-01-01T10:03:09;3.08;;;1.45;;
52468;SDS011;38381;53.688;10.776;2023-01-01T10:13:38;2.63;;;1.70;;
52468;SDS011;38381;53.688;10.776;2023-01-01T10:18:41;2.85;;;1.85;;
52468;SDS011;38381;53.688;10.776;2023-01-01T10:23:49;4.20;;;1.50;;
52468;SDS011;38381;53.688;10.776;2023-01-01T10:28:58;2.35;;;1.65;;
52468;SDS011;38381;53.688;10.776;2023-01-01T10:34:07;2.53;;;1.33;;
52468;SDS011;38381;53.688;10.776;2023-01-01T10:39:28;2.83;;;1.52;;
52468;SDS011;38381;53.688;10.776;2023-01-01T10:44:29;3.13;;;1.77;;
52468;SDS011;38381;53.688;10.776;2023-01-01T10:49:32;5.78;;;1.40;;
52468;SDS011;38381;53.688;10.776;2023-01-01T10:54:36;3.88;;;1.52;;
52468;SDS011;38381;53.688;10.776;2023-01-01T10:59:39;3.13;;;1.67;;
52468;SDS011;38381;53.688;10.776;2023-01-01T11:04:41;1.52;;;1.25;;
52468;SDS011;38381;53.688;10.776;2023-01-01T11:09:41;3.72;;;1.40;;
52468;SDS011;38381;53.688;10.776;2023-01-01T11:14:51;3.10;;;1.58;;
52468;SDS011;38381;53.688;10.776;2023-01-01T11:19:53;2.60;;;1.45;;
52468;SDS011;38381;53.688;10.776;2023-01-01T11:24:59;3.53;;;1.67;;
52468;SDS011;38381;53.688;10.776;2023-01-01T11:35:23;8.13;;;1.80;;
52468;SDS011;38381;53.688;10.776;2023-01-01T11:40:28;3.00;;;1.60;;
52468;SDS011;38381;53.688;10.776;2023-01-01T11:45:32;5.63;;;2.22;;
52468;SDS011;38381;53.688;10.776;2023-01-01T11:50:38;2.20;;;1.65;;
52468;SDS011;38381;53.688;10.776;2023-01-01T11:55:42;1.88;;;1.48;;
52468;SDS011;38381;53.688;10.776;2023-01-01T12:00:46;2.17;;;1.23;;
52468;SDS011;38381;53.688;10.776;2023-01-01T12:05:52;2.00;;;1.60;;
52468;SDS011;38381;53.688;10.776;2023-01-01T12:11:04;3.15;;;1.33;;
52468;SDS011;38381;53.688;10.776;2023-01-01T12:16:38;2.17;;;1.55;;
52468;SDS011;38381;53.688;10.776;2023-01-01T12:21:47;1.60;;;1.48;;
52468;SDS011;38381;53.688;10.776;2023-01-01T12:53:35;2.08;;;1.13;;
52468;SDS011;38381;53.688;10.776;2023-01-01T12:58:57;1.73;;;1.23;;
52468;SDS011;38381;53.688;10.776;2023-01-01T13:04:04;2.30;;;1.20;;
52468;SDS011;38381;53.688;10.776;2023-01-01T13:09:10;2.45;;;1.40;;
52468;SDS011;38381;53.688;10.776;2023-01-01T13:14:14;4.95;;;1.40;;
52468;SDS011;38381;53.688;10.776;2023-01-01T13:19:31;1.17;;;1.08;;
52468;SDS011;38381;53.688;10.776;2023-01-01T13:24:32;1.65;;;1.20;;
52468;SDS011;38381;53.688;10.776;2023-01-01T13:29:33;1.95;;;1.50;;
52468;SDS011;38381;53.688;10.776;2023-01-01T13:44:57;2.67;;;1.58;;
52468;SDS011;38381;53.688;10.776;2023-01-01T13:50:04;3.30;;;1.50;;
52468;SDS011;38381;53.688;10.776;2023-01-01T14:06:07;3.30;;;1.90;;
52468;SDS011;38381;53.688;10.776;2023-01-01T14:11:18;4.40;;;1.60;;
52468;SDS011;38381;53.688;10.776;2023-01-01T14:16:25;4.43;;;1.88;;
52468;SDS011;38381;53.688;10.776;2023-01-01T14:21:30;6.43;;;1.40;;
52468;SDS011;38381;53.688;10.776;2023-01-01T14:26:33;3.05;;;1.88;;
52468;SDS011;38381;53.688;10.776;2023-01-01T14:31:42;3.75;;;2.15;;
52468;SDS011;38381;53.688;10.776;2023-01-01T14:36:50;2.33;;;1.60;;
52468;SDS011;38381;53.688;10.776;2023-01-01T14:42:08;3.80;;;1.77;;
52468;SDS011;38381;53.688;10.776;2023-01-01T14:47:29;3.20;;;1.80;;
52468;SDS011;38381;53.688;10.776;2023-01-01T14:52:32;4.55;;;1.67;;
52468;SDS011;38381;53.688;10.776;2023-01-01T14:57:34;6.33;;;1.83;;
52468;SDS011;38381;53.688;10.776;2023-01-01T15:02:37;6.75;;;2.38;;
52468;SDS011;38381;53.688;10.776;2023-01-01T15:07:37;5.22;;;1.83;;
52468;SDS011;38381;53.688;10.776;2023-01-01T15:12:37;3.40;;;2.00;;
52468;SDS011;38381;53.688;10.776;2023-01-01T15:17:44;3.00;;;1.50;;
52468;SDS011;38381;53.688;10.776;2023-01-01T15:22:45;4.00;;;1.65;;
52468;SDS011;38381;53.688;10.776;2023-01-01T15:27:47;2.78;;;1.40;;
52468;SDS011;38381;53.688;10.776;2023-01-01T15:37:54;3.60;;;1.60;;
52468;SDS011;38381;53.688;10.776;2023-01-01T15:53:09;4.25;;;2.45;;
52468;SDS011;38381;53.688;10.776;2023-01-01T15:58:17;6.45;;;3.47;;
52468;SDS011;38381;53.688;10.776;2023-01-01T16:03:21;6.45;;;2.90;;
52468;SDS011;38381;53.688;10.776;2023-01-01T16:08:25;5.97;;;2.95;;
52468;SDS011;38381;53.688;10.776;2023-01-01T16:13:25;2.60;;;1.90;;
52468;SDS011;38381;53.688;10.776;2023-01-01T16:18:27;2.67;;;1.83;;
52468;SDS011;38381;53.688;10.776;2023-01-01T16:23:29;6.22;;;2.20;;
52468;SDS011;38381;53.688;10.776;2023-01-01T16:28:30;3.70;;;2.60;;
52468;SDS011;38381;53.688;10.776;2023-01-01T16:33:30;3.40;;;2.30;;
52468;SDS011;38381;53.688;10.776;2023-01-01T16:38:31;6.73;;;3.73;;
52468;SDS011;38381;53.688;10.776;2023-01-01T16:43:31;5.97;;;3.10;;
52468;SDS011;38381;53.688;10.776;2023-01-01T16:48:31;5.33;;;2.60;;
52468;SDS011;38381;53.688;10.776;2023-01-01T16:53:32;4.77;;;3.20;;
52468;SDS011;38381;53.688;10.776;2023-01-01T16:58:32;4.70;;;2.75;;
52468;SDS011;38381;53.688;10.776;2023-01-01T17:03:33;4.15;;;2.97;;
52468;SDS011;38381;53.688;10.776;2023-01-01T17:08:34;8.02;;;4.05;;
52468;SDS011;38381;53.688;10.776;2023-01-01T17:13:36;5.37;;;3.03;;
52468;SDS011;38381;53.688;10.776;2023-01-01T17:18:36;4.50;;;2.60;;
52468;SDS011;38381;53.688;10.776;2023-01-01T17:23:38;4.57;;;2.38;;
52468;SDS011;38381;53.688;10.776;2023-01-01T17:28:41;8.05;;;3.65;;
52468;SDS011;38381;53.688;10.776;2023-01-01T17:33:42;4.63;;;2.73;;
52468;SDS011;38381;53.688;10.776;2023-01-01T17:38:42;6.28;;;2.13;;
52468;SDS011;38381;53.688;10.776;2023-01-01T17:43:47;5.80;;;2.85;;
52468;SDS011;38381;53.688;10.776;2023-01-01T17:53:50;5.13;;;2.83;;
52468;SDS011;38381;53.688;10.776;2023-01-01T17:58:51;5.82;;;3.00;;
52468;SDS011;38381;53.688;10.776;2023-01-01T18:03:53;6.10;;;2.83;;
52468;SDS011;38381;53.688;10.776;2023-01-01T18:08:59;6.93;;;2.65;;
52468;SDS011;38381;53.688;10.776;2023-01-01T18:14:01;7.75;;;2.92;;
52468;SDS011;38381;53.688;10.776;2023-01-01T18:19:03;4.82;;;3.75;;
52468;SDS011;38381;53.688;10.776;2023-01-01T18:24:06;7.20;;;3.88;;
52468;SDS011;38381;53.688;10.776;2023-01-01T18:29:11;7.35;;;3.45;;
52468;SDS011;38381;53.688;10.776;2023-01-01T18:34:11;3.25;;;2.53;;
52468;SDS011;38381;53.688;10.776;2023-01-01T18:39:22;7.30;;;3.03;;
52468;SDS011;38381;53.688;10.776;2023-01-01T18:44:30;7.35;;;3.10;;
52468;SDS011;38381;53.688;10.776;2023-01-01T18:49:35;3.70;;;2.13;;
52468;SDS011;38381;53.688;10.776;2023-01-01T18:54:36;4.07;;;2.88;;
52468;SDS011;38381;53.688;10.776;2023-01-01T18:59:36;7.93;;;2.63;;
52468;SDS011;38381;53.688;10.776;2023-01-01T19:04:37;6.97;;;4.68;;
52468;SDS011;38381;53.688;10.776;2023-01-01T19:09:37;10.13;;;5.67;;
52468;SDS011;38381;53.688;10.776;2023-01-01T19:14:38;6.82;;;3.55;;
52468;SDS011;38381;53.688;10.776;2023-01-01T19:19:40;4.35;;;3.22;;
52468;SDS011;38381;53.688;10.776;2023-01-01T19:24:40;6.25;;;3.47;;
52468;SDS011;38381;53.688;10.776;2023-01-01T19:29:43;9.25;;;3.95;;
52468;SDS011;38381;53.688;10.776;2023-01-01T19:34:45;8.43;;;4.68;;
52468;SDS011;38381;53.688;10.776;2023-01-01T19:39:45;5.15;;;3.50;;
52468;SDS011;38381;53.688;10.776;2023-01-01T19:44:45;6.60;;;3.22;;
52468;SDS011;38381;53.688;10.776;2023-01-01T19:49:46;7.10;;;3.67;;
52468;SDS011;38381;53.688;10.776;2023-01-01T19:54:46;5.90;;;3.05;;
52468;SDS011;38381;53.688;10.776;2023-01-01T19:59:47;5.00;;;3.28;;
52468;SDS011;38381;53.688;10.776;2023-01-01T20:04:47;7.33;;;4.90;;
52468;SDS011;38381;53.688;10.776;2023-01-01T20:09:48;13.70;;;4.50;;
52468;SDS011;38381;53.688;10.776;2023-01-01T20:14:48;5.87;;;3.07;;
52468;SDS011;38381;53.688;10.776;2023-01-01T20:19:49;6.50;;;2.90;;
52468;SDS011;38381;53.688;10.776;2023-01-01T20:24:49;5.75;;;3.42;;
52468;SDS011;38381;53.688;10.776;2023-01-01T20:29:50;5.32;;;3.10;;
52468;SDS011;38381;53.688;10.776;2023-01-01T20:34:50;6.93;;;3.25;;
52468;SDS011;38381;53.688;10.776;2023-01-01T20:39:52;10.13;;;3.83;;
52468;SDS011;38381;53.688;10.776;2023-01-01T20:44:52;5.78;;;4.07;;
52468;SDS011;38381;53.688;10.776;2023-01-01T20:49:53;5.25;;;3.20;;
52468;SDS011;38381;53.688;10.776;2023-01-01T20:54:53;6.95;;;4.20;;
52468;SDS011;38381;53.688;10.776;2023-01-01T20:59:53;5.37;;;3.40;;
52468;SDS011;38381;53.688;10.776;2023-01-01T21:04:54;8.47;;;3.57;;
52468;SDS011;38381;53.688;10.776;2023-01-01T21:09:54;6.47;;;3.23;;
52468;SDS011;38381;53.688;10.776;2023-01-01T21:14:55;11.60;;;4.43;;
52468;SDS011;38381;53.688;10.776;2023-01-01T21:19:55;5.93;;;4.20;;
52468;SDS011;38381;53.688;10.776;2023-01-01T21:24:57;5.97;;;3.83;;
52468;SDS011;38381;53.688;10.776;2023-01-01T21:30:01;9.02;;;4.07;;
52468;SDS011;38381;53.688;10.776;2023-01-01T21:35:08;7.63;;;3.17;;
52468;SDS011;38381;53.688;10.776;2023-01-01T21:45:34;7.47;;;3.47;;
52468;SDS011;38381;53.688;10.776;2023-01-01T21:50:40;7.95;;;3.80;;
52468;SDS011;38381;53.688;10.776;2023-01-01T21:55:45;15.38;;;11.30;;
52468;SDS011;38381;53.688;10.776;2023-01-01T22:00:53;8.25;;;4.20;;
52468;SDS011;38381;53.688;10.776;2023-01-01T22:05:54;4.97;;;4.03;;
52468;SDS011;38381;53.688;10.776;2023-01-01T22:10:55;7.10;;;3.93;;
52468;SDS011;38381;53.688;10.776;2023-01-01T22:15:56;6.73;;;4.17;;
52468;SDS011;38381;53.688;10.776;2023-01-01T22:20:56;4.90;;;3.53;;
52468;SDS011;38381;53.688;10.776;2023-01-01T22:25:57;6.90;;;4.18;;
52468;SDS011;38381;53.688;10.776;2023-01-01T22:30:58;6.47;;;3.88;;
52468;SDS011;38381;53.688;10.776;2023-01-01T22:35:59;5.35;;;3.45;;
52468;SDS011;38381;53.688;10.776;2023-01-01T22:41:00;7.10;;;3.70;;
52468;SDS011;38381;53.688;10.776;2023-01-01T22:46:46;5.53;;;4.55;;
52468;SDS011;38381;53.688;10.776;2023-01-01T22:51:31;11.45;;;4.60;;
52468;SDS011;38381;53.688;10.776;2023-01-01T22:56:37;6.07;;;3.92;;
52468;SDS011;38381;53.688;10.776;2023-01-01T23:01:38;4.77;;;3.33;;
52468;SDS011;38381;53.688;10.776;2023-01-01T23:06:38;4.70;;;3.60;;
52468;SDS011;38381;53.688;10.776;2023-01-01T23:11:39;5.78;;;3.40;;
52468;SDS011;38381;53.688;10.776;2023-01-01T23:16:39;5.25;;;3.35;;
52468;SDS011;38381;53.688;10.776;2023-01-01T23:21:40;6.00;;;3.63;;
52468;SDS011;38381;53.688;10.776;2023-01-01T23:26:41;6.15;;;4.20;;
52468;SDS011;38381;53.688;10.776;2023-01-01T23:31:42;5.57;;;3.40;;
52468;SDS011;38381;53.688;10.776;2023-01-01T23:36:43;4.43;;;2.88;;
52468;SDS011;38381;53.688;10.776;2023-01-01T23:41:44;4.43;;;3.00;;
52468;SDS011;38381;53.688;10.776;2023-01-01T23:46:44;5.78;;;2.50;;
52468;SDS011;38381;53.688;10.776;2023-01-01T23:51:45;3.55;;;2.85;;
52468;SDS011;38381;53.688;10.776;2023-01-01T23:56:45;9.07;;;3.07;;
